createdAt,value
2018-06-01T03:00:57.766Z,99.99
2018-06-01T03:02:58.049Z,99.99
2018-06-01T03:03:57.988Z,99.99
2018-06-01T03:04:58.143Z,99.99
2018-06-01T03:05:58.342Z,99.99
2018-06-01T03:06:58.504Z,99.99
2018-06-01T03:07:58.677Z,99.99
2018-06-01T03:08:58.884Z,99.99
2018-06-01T03:09:58.988Z,99.99
2018-06-01T03:10:59.227Z,99.99
2018-06-01T03:11:59.319Z,99.99
2018-06-01T03:12:59.528Z,99.99
2018-06-01T03:13:59.743Z,99.99
2018-06-01T03:14:59.837Z,99.99
2018-06-01T03:16:00.083Z,99.99
2018-06-01T03:17:00.147Z,99.63
2018-06-01T03:18:00.419Z,99.99
2018-06-01T03:19:00.671Z,99.92
2018-06-01T03:20:00.710Z,99.68
2018-06-01T03:21:00.927Z,99.68
2018-06-01T03:22:01.176Z,99.49
2018-06-01T03:23:01.254Z,99.01
2018-06-01T03:24:01.504Z,98.82
2018-06-01T03:25:01.609Z,99.21
2018-06-01T03:26:01.748Z,99.11
2018-06-01T03:27:01.957Z,98.91
2018-06-01T03:28:02.135Z,98.53
2018-06-01T03:29:02.349Z,98.44
2018-06-01T03:30:02.473Z,97.96
2018-06-01T03:31:02.681Z,98.44
2018-06-01T03:32:02.812Z,97.28
2018-06-01T03:33:02.943Z,97.67
2018-06-01T03:34:03.138Z,97.86
2018-06-01T03:35:03.367Z,96.90
2018-06-01T03:36:03.497Z,97.76
2018-06-01T03:37:03.667Z,98.63
2018-06-01T03:38:03.798Z,99.49
2018-06-01T03:39:04.051Z,99.98
2018-06-01T03:40:04.180Z,99.99
2018-06-01T03:41:04.347Z,99.99
2018-06-01T03:42:04.573Z,99.99
2018-06-01T03:43:04.684Z,99.99
2018-06-01T03:44:04.832Z,99.99
2018-06-01T03:45:05.041Z,99.99
2018-06-01T03:46:05.265Z,99.99
2018-06-01T03:47:05.351Z,99.99
2018-06-01T03:48:05.572Z,99.99
2018-06-01T03:49:05.687Z,99.99
2018-06-01T03:50:05.786Z,99.99
2018-06-01T03:51:06.006Z,99.99
2018-06-01T03:52:06.198Z,99.99
2018-06-01T03:53:06.364Z,99.99
2018-06-01T03:54:06.538Z,99.99
2018-06-01T03:55:06.711Z,99.99
2018-06-01T03:56:06.850Z,99.99
2018-06-01T03:57:06.978Z,99.99
2018-06-01T03:58:07.153Z,99.99
2018-06-01T03:59:07.357Z,99.99
2018-06-01T04:00:07.521Z,99.99
2018-06-01T04:01:07.627Z,99.99
2018-06-01T04:02:07.935Z,99.99
2018-06-01T04:03:08.031Z,99.99
2018-06-01T04:04:08.185Z,99.99
2018-06-01T04:05:08.357Z,99.99
2018-06-01T04:06:08.579Z,99.99
2018-06-01T04:07:08.764Z,99.99
2018-06-01T04:08:08.893Z,99.99
2018-06-01T04:09:09.162Z,99.99
2018-06-01T04:10:09.348Z,99.99
2018-06-01T04:11:09.414Z,99.99
2018-06-01T04:12:09.650Z,99.99
2018-06-01T04:13:09.782Z,99.99
2018-06-01T04:14:09.949Z,99.99
2018-06-01T04:15:10.085Z,99.99
2018-06-01T04:16:10.301Z,99.99
2018-06-01T04:17:10.487Z,99.99
2018-06-01T04:18:10.573Z,99.99
2018-06-01T04:19:10.741Z,99.99
2018-06-01T04:20:10.881Z,99.99
2018-06-01T04:21:11.171Z,99.99
2018-06-01T04:22:11.243Z,99.99
2018-06-01T04:23:11.408Z,99.99
2018-06-01T04:24:11.595Z,99.99
2018-06-01T04:25:11.780Z,99.99
2018-06-01T04:26:11.958Z,99.99
2018-06-01T04:27:12.080Z,99.99
2018-06-01T04:28:12.239Z,99.21
2018-06-01T04:29:12.401Z,99.21
2018-06-01T04:30:12.604Z,99.99
2018-06-01T04:31:12.799Z,99.35
2018-06-01T04:32:12.980Z,99.06
2018-06-01T04:33:13.056Z,98.87
2018-06-01T04:34:13.268Z,99.06
2018-06-01T04:35:13.369Z,98.39
2018-06-01T04:36:13.576Z,98.77
2018-06-01T04:37:13.728Z,99.06
2018-06-01T04:38:13.864Z,99.64
2018-06-01T04:39:14.104Z,99.54
2018-06-01T04:40:14.216Z,99.93
2018-06-01T04:41:14.455Z,99.99
2018-06-01T04:42:14.620Z,99.99
2018-06-01T04:43:14.787Z,99.99
2018-06-01T04:44:14.956Z,99.99
2018-06-01T04:45:15.113Z,99.99
2018-06-01T04:46:15.261Z,99.99
2018-06-01T04:47:15.456Z,99.99
2018-06-01T04:48:15.622Z,99.99
2018-06-01T04:49:15.771Z,99.99
2018-06-01T04:50:16.014Z,99.99
2018-06-01T04:51:16.131Z,99.99
2018-06-01T04:52:16.271Z,99.99
2018-06-01T04:53:16.452Z,99.99
2018-06-01T04:54:16.707Z,99.99
2018-06-01T04:55:16.926Z,99.99
2018-06-01T04:56:16.992Z,99.99
2018-06-01T04:57:17.209Z,99.99
2018-06-01T04:58:17.346Z,99.99
2018-06-01T04:59:17.531Z,99.99
2018-06-01T05:00:17.713Z,99.99
2018-06-01T05:01:17.940Z,99.99
2018-06-01T05:02:18.043Z,99.99
2018-06-01T05:03:18.205Z,99.99
2018-06-01T05:04:18.324Z,99.99
2018-06-01T05:05:18.517Z,99.99
2018-06-01T05:06:18.684Z,99.99
2018-06-01T05:07:18.841Z,99.93
2018-06-01T05:08:19.008Z,99.83
2018-06-01T05:09:19.157Z,99.59
2018-06-01T05:10:19.375Z,99.69
2018-06-01T05:11:19.485Z,99.69
2018-06-01T05:12:19.656Z,98.72
2018-06-01T05:13:19.823Z,99.88
2018-06-01T05:14:19.973Z,99.69
2018-06-01T05:15:20.129Z,99.49
2018-06-01T05:16:20.287Z,99.01
2018-06-01T05:17:20.488Z,99.01
2018-06-01T05:18:20.788Z,99.78
2018-06-01T05:19:20.866Z,99.78
2018-06-01T05:20:20.991Z,99.49
2018-06-01T05:21:21.155Z,99.11
2018-06-01T05:22:21.364Z,98.82
2018-06-01T05:23:21.463Z,98.82
2018-06-01T05:24:21.667Z,98.72
2018-06-01T05:25:22.075Z,99.21
2018-06-01T05:26:22.111Z,99.11
2018-06-01T05:27:22.208Z,99.49
2018-06-01T05:28:22.437Z,99.40
2018-06-01T05:29:22.643Z,99.40
2018-06-01T05:30:22.721Z,99.59
2018-06-01T05:31:22.951Z,99.01
2018-06-01T05:32:23.097Z,98.49
2018-06-01T05:33:23.208Z,98.39
2018-06-01T05:34:23.476Z,97.91
2018-06-01T05:35:23.572Z,97.72
2018-06-01T05:36:23.727Z,96.37
2018-06-01T05:37:23.913Z,98.00
2018-06-01T05:38:24.042Z,97.04
2018-06-01T05:39:24.238Z,97.24
2018-06-01T05:40:24.543Z,96.66
2018-06-01T05:41:24.734Z,96.56
2018-06-01T05:42:24.839Z,96.46
2018-06-01T05:43:24.968Z,97.04
2018-06-01T05:44:25.112Z,97.14
2018-06-01T05:45:25.276Z,96.56
2018-06-01T05:46:25.455Z,97.33
2018-06-01T05:47:25.664Z,97.81
2018-06-01T05:48:25.759Z,96.37
2018-06-01T05:49:25.924Z,97.57
2018-06-01T05:50:26.147Z,97.91
2018-06-01T05:51:26.276Z,98.49
2018-06-01T05:52:26.502Z,96.46
2018-06-01T05:53:26.619Z,97.14
2018-06-01T05:54:26.873Z,96.75
2018-06-01T05:55:26.942Z,96.85
2018-06-01T05:56:27.189Z,96.66
2018-06-01T05:57:27.348Z,96.94
2018-06-01T05:58:27.448Z,96.94
2018-06-01T05:59:27.674Z,95.21
2018-06-01T06:00:27.829Z,96.27
2018-06-01T06:01:27.962Z,96.03
2018-06-01T06:02:28.192Z,94.82
2018-06-01T06:03:28.370Z,95.40
2018-06-01T06:04:28.605Z,96.17
2018-06-01T06:05:28.785Z,95.79
2018-06-01T06:06:28.946Z,94.82
2018-06-01T06:07:29.138Z,95.60
2018-06-01T06:08:29.298Z,95.21
2018-06-01T06:09:29.536Z,93.48
2018-06-01T06:10:29.591Z,95.89
2018-06-01T06:11:29.795Z,96.66
2018-06-01T06:12:29.888Z,98.00
2018-06-01T06:13:30.128Z,96.51
2018-06-01T06:14:30.330Z,94.73
2018-06-01T06:15:30.477Z,93.38
2018-06-01T06:16:30.627Z,93.04
2018-06-01T06:17:30.770Z,93.91
2018-06-01T06:18:30.953Z,95.36
2018-06-01T06:20:43.536Z,93.04
2018-06-01T06:21:34.432Z,92.18
2018-06-01T06:22:34.226Z,94.59
2018-06-01T06:23:34.156Z,95.16
2018-06-01T06:25:32.142Z,94.39
2018-06-01T06:26:32.372Z,93.33
2018-06-01T06:27:32.453Z,92.76
2018-06-01T06:28:32.685Z,91.60
2018-06-01T06:29:32.893Z,92.94
2018-06-01T06:30:33.049Z,93.24
2018-06-01T06:31:33.267Z,93.81
2018-06-01T06:32:33.375Z,92.56
2018-06-01T06:33:33.580Z,91.79
2018-06-01T06:34:33.723Z,93.33
2018-06-01T06:35:33.953Z,93.24
2018-06-01T06:36:34.105Z,93.52
2018-06-01T06:37:34.295Z,93.91
2018-06-01T06:38:34.441Z,93.52
2018-06-01T06:39:34.615Z,90.73
2018-06-01T06:40:34.786Z,90.73
2018-06-01T06:41:34.909Z,91.21
2018-06-01T06:42:35.041Z,91.02
2018-06-01T06:43:35.228Z,92.94
2018-06-01T06:44:35.336Z,94.78
2018-06-01T06:45:35.521Z,91.46
2018-06-01T06:46:35.725Z,91.02
2018-06-01T06:47:35.927Z,91.02
2018-06-01T06:48:36.109Z,93.62
2018-06-01T06:49:36.202Z,91.99
2018-06-01T06:50:36.471Z,93.19
2018-06-01T06:51:36.659Z,95.21
2018-06-01T06:52:36.813Z,93.76
2018-06-01T06:53:37.007Z,93.19
2018-06-01T06:54:37.116Z,89.53
2018-06-01T06:55:37.267Z,90.53
2018-06-01T06:56:37.566Z,89.95
2018-06-01T06:57:37.664Z,89.67
2018-06-01T06:58:37.848Z,88.31
2018-06-01T06:59:38.047Z,87.06
2018-06-01T07:00:38.185Z,87.26
2018-06-01T07:01:38.418Z,90.05
2018-06-01T07:02:38.531Z,91.40
2018-06-01T07:03:38.643Z,91.06
2018-06-01T07:04:38.850Z,88.27
2018-06-01T07:05:39.032Z,90.30
2018-06-01T07:06:39.143Z,89.48
2018-06-01T07:07:39.355Z,93.24
2018-06-01T07:08:39.490Z,93.76
2018-06-01T07:09:39.704Z,93.14
2018-06-01T07:10:39.829Z,93.62
2018-06-01T07:11:39.939Z,94.01
2018-06-01T07:12:40.145Z,93.81
2018-06-01T07:13:40.350Z,94.01
2018-06-01T07:14:40.552Z,94.10
2018-06-01T07:15:40.676Z,93.33
2018-06-01T07:16:40.787Z,91.31
2018-06-01T07:17:40.986Z,90.64
2018-06-01T07:18:41.120Z,90.64
2018-06-01T07:19:41.397Z,92.03
2018-06-01T07:20:41.506Z,89.91
2018-06-01T07:21:41.693Z,89.29
2018-06-01T07:22:41.909Z,90.54
2018-06-01T07:23:42.063Z,90.44
2018-06-01T07:24:42.221Z,90.92
2018-06-01T07:25:42.368Z,89.58
2018-06-01T07:26:42.502Z,91.02
2018-06-01T07:27:42.673Z,91.94
2018-06-01T07:28:42.842Z,91.94
2018-06-01T07:29:43.083Z,92.03
2018-06-01T07:30:43.141Z,91.65
2018-06-01T07:31:43.335Z,91.36
2018-06-01T07:32:43.553Z,91.07
2018-06-01T07:33:43.714Z,91.36
2018-06-01T07:34:43.854Z,91.75
2018-06-01T07:35:44.040Z,93.00
2018-06-01T07:36:44.156Z,92.90
2018-06-01T07:37:44.356Z,90.78
2018-06-01T07:38:44.503Z,91.31
2018-06-01T07:39:44.663Z,92.28
2018-06-01T07:40:44.877Z,91.55
2018-06-01T07:41:45.020Z,90.20
2018-06-01T07:42:45.159Z,89.15
2018-06-01T07:43:45.358Z,90.83
2018-06-01T07:44:45.440Z,91.21
2018-06-01T07:45:45.685Z,91.64
2018-06-01T07:46:45.901Z,90.78
2018-06-01T07:47:45.991Z,91.64
2018-06-01T07:48:46.213Z,88.95
2018-06-01T07:49:46.368Z,90.30
2018-06-01T07:50:46.495Z,89.33
2018-06-01T07:51:46.692Z,90.78
2018-06-01T07:52:46.837Z,89.09
2018-06-01T07:53:46.969Z,87.93
2018-06-01T07:54:47.141Z,87.45
2018-06-01T07:55:47.349Z,86.68
2018-06-01T07:56:47.458Z,85.37
2018-06-01T07:57:47.581Z,85.37
2018-06-01T07:58:47.739Z,86.24
2018-06-01T07:59:48.026Z,84.79
2018-06-01T08:00:48.112Z,84.21
2018-06-01T08:01:48.342Z,85.56
2018-06-01T08:02:48.445Z,85.17
2018-06-01T08:03:48.654Z,84.94
2018-06-01T08:04:48.848Z,84.65
2018-06-01T08:05:48.945Z,84.75
2018-06-01T08:06:49.166Z,83.98
2018-06-01T08:07:49.399Z,83.40
2018-06-01T08:08:49.499Z,83.88
2018-06-01T08:09:49.716Z,84.46
2018-06-01T08:10:49.908Z,83.11
2018-06-01T08:11:50.013Z,85.13
2018-06-01T08:12:50.205Z,85.33
2018-06-01T08:13:50.427Z,85.96
2018-06-01T08:14:50.569Z,87.26
2018-06-01T08:15:50.718Z,87.16
2018-06-01T08:16:50.942Z,85.77
2018-06-01T08:17:51.128Z,86.82
2018-06-01T08:18:51.276Z,86.35
2018-06-01T08:19:51.354Z,87.30
2018-06-01T08:20:51.556Z,86.63
2018-06-01T08:21:51.798Z,87.21
2018-06-01T08:22:51.921Z,86.82
2018-06-01T08:23:52.109Z,86.73
2018-06-01T08:24:52.249Z,89.04
2018-06-01T08:25:52.398Z,89.33
2018-06-01T08:26:52.586Z,90.68
2018-06-01T08:27:52.738Z,87.84
2018-06-01T08:28:52.930Z,88.08
2018-06-01T08:29:53.022Z,87.21
2018-06-01T08:30:53.249Z,86.15
2018-06-01T08:31:53.346Z,86.88
2018-06-01T08:32:53.622Z,86.05
2018-06-01T08:33:53.762Z,85.47
2018-06-01T08:34:53.934Z,86.35
2018-06-01T08:35:54.071Z,85.19
2018-06-01T08:36:54.289Z,84.32
2018-06-01T08:37:54.457Z,85.19
2018-06-01T08:38:54.549Z,85.19
2018-06-01T08:39:54.729Z,84.99
2018-06-01T08:40:54.973Z,84.46
2018-06-01T08:41:55.062Z,84.55
2018-06-01T08:42:55.221Z,84.55
2018-06-01T08:43:55.462Z,84.75
2018-06-01T08:44:55.584Z,84.36
2018-06-01T08:45:55.708Z,85.46
2018-06-01T08:46:55.916Z,85.42
2018-06-01T08:47:56.081Z,82.72
2018-06-01T08:48:56.245Z,84.84
2018-06-01T08:49:56.387Z,85.71
2018-06-01T08:50:56.529Z,85.03
2018-06-01T08:51:56.740Z,83.20
2018-06-01T08:52:56.917Z,82.53
2018-06-01T08:53:57.050Z,82.14
2018-06-01T08:54:57.278Z,82.72
2018-06-01T08:55:57.373Z,82.76
2018-06-01T08:56:57.601Z,82.92
2018-06-01T08:57:57.774Z,82.67
2018-06-01T08:58:57.909Z,81.60
2018-06-01T08:59:58.037Z,81.70
2018-06-01T09:00:58.226Z,82.71
2018-06-01T09:01:58.396Z,83.19
2018-06-01T09:02:58.523Z,81.26
2018-06-01T09:03:58.710Z,81.45
2018-06-01T09:04:58.884Z,79.91
2018-06-01T09:05:59.066Z,79.24
2018-06-01T09:06:59.238Z,80.39
2018-06-01T09:07:59.393Z,79.91
2018-06-01T09:08:59.592Z,80.30
2018-06-01T09:09:59.745Z,80.78
2018-06-01T09:10:59.867Z,80.30
2018-06-01T09:12:00.060Z,80.97
2018-06-01T09:13:00.274Z,81.98
2018-06-01T09:14:00.379Z,79.56
2018-06-01T09:15:00.595Z,77.63
2018-06-01T09:16:00.783Z,76.86
2018-06-01T09:17:00.955Z,78.79
2018-06-01T09:18:01.111Z,77.34
2018-06-01T09:19:01.259Z,77.57
2018-06-01T09:20:01.521Z,75.35
2018-06-01T09:21:01.558Z,75.84
2018-06-01T09:22:01.744Z,76.42
2018-06-01T09:23:01.924Z,76.03
2018-06-01T09:24:02.071Z,77.48
2018-06-01T09:25:02.276Z,74.10
2018-06-01T09:26:02.468Z,75.20
2018-06-01T09:27:02.639Z,74.13
2018-06-01T09:28:02.724Z,73.16
2018-06-01T09:29:02.937Z,76.01
2018-06-01T09:30:03.102Z,77.94
2018-06-01T09:31:03.248Z,76.78
2018-06-01T09:32:03.435Z,74.79
2018-06-01T09:33:03.636Z,72.17
2018-06-01T09:34:03.771Z,74.07
2018-06-01T09:35:03.967Z,71.66
2018-06-01T09:36:04.136Z,73.59
2018-06-01T09:37:04.280Z,72.24
2018-06-01T09:38:04.423Z,73.20
2018-06-01T09:39:04.639Z,74.62
2018-06-01T09:40:04.828Z,73.80
2018-06-01T09:41:05.012Z,74.48
2018-06-01T09:42:05.160Z,74.44
2018-06-01T09:43:05.292Z,76.09
2018-06-01T09:44:05.427Z,74.83
2018-06-01T09:45:05.632Z,75.22
2018-06-01T09:46:05.828Z,76.76
2018-06-01T09:47:05.949Z,75.64
2018-06-01T09:48:06.063Z,75.26
2018-06-01T09:49:06.307Z,78.15
2018-06-01T09:50:06.441Z,79.12
2018-06-01T09:51:06.660Z,78.96
2018-06-01T09:52:06.800Z,75.20
2018-06-01T09:53:06.965Z,75.78
2018-06-01T09:54:07.131Z,75.87
2018-06-01T09:55:07.227Z,78.29
2018-06-01T09:56:07.478Z,78.87
2018-06-01T09:57:07.625Z,73.74
2018-06-01T09:58:07.888Z,74.42
2018-06-01T09:59:08.007Z,76.35
2018-06-01T10:00:08.143Z,73.26
2018-06-01T10:01:08.268Z,72.78
2018-06-01T10:02:08.444Z,74.13
2018-06-01T10:03:08.657Z,72.30
2018-06-01T10:04:08.857Z,74.13
2018-06-01T10:05:08.991Z,75.20
2018-06-01T10:06:09.239Z,72.10
2018-06-01T10:07:09.286Z,71.08
2018-06-01T10:08:09.543Z,71.72
2018-06-01T10:09:09.820Z,73.26
2018-06-01T10:10:09.836Z,74.07
2018-06-01T10:11:10.048Z,71.72
2018-06-01T10:12:10.167Z,74.13
2018-06-01T10:13:10.422Z,72.58
2018-06-01T10:14:10.547Z,71.66
2018-06-01T10:15:10.804Z,72.62
2018-06-01T10:16:10.906Z,73.78
2018-06-01T10:17:11.092Z,74.49
2018-06-01T10:18:11.248Z,73.24
2018-06-01T10:21:11.112Z,73.24
2018-06-01T10:22:36.988Z,75.43
2018-06-01T10:23:04.122Z,74.81
2018-06-01T10:24:33.300Z,73.84
2018-06-01T10:26:14.236Z,71.84
2018-06-01T10:27:06.311Z,71.30
2018-06-01T10:32:28.138Z,64.75
2018-06-01T10:33:35.114Z,66.02
2018-06-01T10:34:27.139Z,65.34
2018-06-01T10:35:28.041Z,65.53
2018-06-01T10:36:27.557Z,66.08
2018-06-01T10:37:24.713Z,64.43
2018-06-01T10:38:26.884Z,67.79
2018-06-01T10:39:25.025Z,69.18
2018-06-01T10:40:25.152Z,67.14
2018-06-01T10:41:25.314Z,65.66
2018-06-01T10:42:25.575Z,67.24
2018-06-01T10:43:25.814Z,67.63
2018-06-01T10:44:25.921Z,67.82
2018-06-01T10:45:26.388Z,67.63
2018-06-01T10:46:26.218Z,69.47
2018-06-01T10:47:26.448Z,67.57
2018-06-01T10:48:26.739Z,63.39
2018-06-01T10:49:26.840Z,60.35
2018-06-01T10:50:27.003Z,57.46
2018-06-01T10:51:27.222Z,56.71
2018-06-01T10:52:27.444Z,57.54
2018-06-01T10:53:27.590Z,56.89
2018-06-01T10:54:27.864Z,54.41
2018-06-01T10:55:28.041Z,56.40
2018-06-01T10:56:28.063Z,58.54
2018-06-01T10:57:28.255Z,56.57
2018-06-01T10:58:28.437Z,58.45
2018-06-01T10:59:28.529Z,57.67
2018-06-01T11:00:28.737Z,55.52
2018-06-01T11:01:28.931Z,58.28
2018-06-01T11:02:28.975Z,57.34
2018-06-01T11:03:29.285Z,51.95
2018-06-01T11:04:29.576Z,52.07
2018-06-01T11:05:29.763Z,50.43
2018-06-01T11:06:29.881Z,50.12
2018-06-01T11:07:29.963Z,47.63
2018-06-01T11:08:30.254Z,49.33
2018-06-01T11:09:30.414Z,54.20
2018-06-01T11:10:30.643Z,52.58
2018-06-01T11:11:30.728Z,50.75
2018-06-01T11:12:30.881Z,53.72
2018-06-01T11:13:31.054Z,56.51
2018-06-01T11:14:31.315Z,58.62
2018-06-01T11:15:31.568Z,56.20
2018-06-01T11:16:31.727Z,58.92
2018-06-01T11:17:31.789Z,58.59
2018-06-01T11:18:32.199Z,60.98
2018-06-01T11:19:32.205Z,54.73
2018-06-01T11:20:32.436Z,50.49
2018-06-01T11:21:32.630Z,53.15
2018-06-01T11:22:32.943Z,50.73
2018-06-01T11:23:33.120Z,46.86
2018-06-01T11:24:33.305Z,51.10
2018-06-01T11:25:33.408Z,49.63
2018-06-01T11:26:33.493Z,47.03
2018-06-01T11:27:33.689Z,41.98
2018-06-01T11:28:33.837Z,39.98
2018-06-01T11:29:33.979Z,42.41
2018-06-01T11:30:34.218Z,45.25
2018-06-01T11:31:34.343Z,44.54
2018-06-01T11:32:34.541Z,43.48
2018-06-01T11:33:34.662Z,42.76
2018-06-01T11:34:34.870Z,46.33
2018-06-01T11:35:35.025Z,48.77
2018-06-01T11:36:35.176Z,51.10
2018-06-01T11:37:35.401Z,47.95
2018-06-01T11:38:35.547Z,49.37
2018-06-01T11:39:35.711Z,49.51
2018-06-01T11:40:35.859Z,49.93
2018-06-01T11:41:36.082Z,49.51
2018-06-01T11:42:36.231Z,46.60
2018-06-01T11:43:36.473Z,47.07
2018-06-01T11:44:36.554Z,47.61
2018-06-01T11:45:36.754Z,49.93
2018-06-01T11:46:36.933Z,49.61
2018-06-01T11:47:37.094Z,53.50
2018-06-01T11:48:37.268Z,50.87
2018-06-01T11:49:37.477Z,54.72
2018-06-01T11:50:37.652Z,54.50
2018-06-01T11:51:37.826Z,56.93
2018-06-01T11:52:37.962Z,55.83
2018-06-01T11:53:38.184Z,56.10
2018-06-01T11:54:38.323Z,56.68
2018-06-01T11:55:38.430Z,56.95
2018-06-01T11:56:38.664Z,57.60
2018-06-01T11:57:38.762Z,58.67
2018-06-01T11:58:38.957Z,59.25
2018-06-01T11:59:39.212Z,60.05
2018-06-01T12:00:39.280Z,60.15
2018-06-01T12:01:39.476Z,55.54
2018-06-01T12:02:39.670Z,57.29
2018-06-01T12:03:39.887Z,55.74
2018-06-01T12:04:40.008Z,52.53
2018-06-01T12:05:40.189Z,50.34
2018-06-01T12:06:40.379Z,50.53
2018-06-01T12:07:40.494Z,50.36
2018-06-01T12:08:40.717Z,47.53
2018-06-01T12:09:40.875Z,49.41
2018-06-01T12:10:41.051Z,47.09
2018-06-01T12:11:41.204Z,46.23
2018-06-01T12:12:41.421Z,47.24
2018-06-01T12:13:41.507Z,46.79
2018-06-01T12:14:41.726Z,46.77
2018-06-01T12:15:41.900Z,45.62
2018-06-01T12:16:42.055Z,45.15
2018-06-01T12:17:42.311Z,45.47
2018-06-01T12:18:42.378Z,48.23
2018-06-01T12:19:42.574Z,45.47
2018-06-01T12:20:42.753Z,43.38
2018-06-01T12:21:43.011Z,45.69
2018-06-01T12:22:43.093Z,48.11
2018-06-01T12:23:43.298Z,46.75
2018-06-01T12:24:43.522Z,48.09
2018-06-01T12:25:43.597Z,47.70
2018-06-01T12:26:43.800Z,48.54
2018-06-01T12:27:44.018Z,46.63
2018-06-01T12:28:44.154Z,47.95
2018-06-01T12:29:44.357Z,48.46
2018-06-01T12:30:44.486Z,45.50
2018-06-01T12:31:44.736Z,46.14
2018-06-01T12:32:44.919Z,47.19
2018-06-01T12:33:45.038Z,49.19
2018-06-01T12:34:45.311Z,51.02
2018-06-01T12:35:45.441Z,52.24
2018-06-01T12:36:45.557Z,50.73
2018-06-01T12:37:45.714Z,52.67
2018-06-01T12:38:45.979Z,53.16
2018-06-01T12:39:46.079Z,51.68
2018-06-01T12:40:46.288Z,52.39
2018-06-01T12:41:47.102Z,52.08
2018-06-01T12:42:46.589Z,50.59
2018-06-01T12:43:46.748Z,49.27
2018-06-01T12:44:46.912Z,49.93
2018-06-01T12:45:47.130Z,51.36
2018-06-01T12:46:47.332Z,50.56
2018-06-01T12:47:47.478Z,51.26
2018-06-01T12:48:47.678Z,53.69
2018-06-01T12:49:47.849Z,54.54
2018-06-01T12:50:47.981Z,55.49
2018-06-01T12:51:48.138Z,57.28
2018-06-01T12:52:48.352Z,57.25
2018-06-01T12:53:48.556Z,59.09
2018-06-01T12:54:48.695Z,60.35
2018-06-01T12:55:48.866Z,60.32
2018-06-01T12:56:49.088Z,58.09
2018-06-01T12:57:49.195Z,57.61
2018-06-01T12:58:49.377Z,57.03
2018-06-01T12:59:49.633Z,59.13
2018-06-01T13:00:49.773Z,58.65
2018-06-01T13:01:49.911Z,59.74
2018-06-01T13:02:50.140Z,61.32
2018-06-01T13:03:50.230Z,61.25
2018-06-01T13:04:50.483Z,61.84
2018-06-01T13:05:50.610Z,60.51
2018-06-01T13:06:50.800Z,61.77
2018-06-01T13:07:50.982Z,60.02
2018-06-01T13:08:51.209Z,60.02
2018-06-01T13:09:51.288Z,59.05
2018-06-01T13:10:51.513Z,61.35
2018-06-01T13:11:51.685Z,63.20
2018-06-01T13:12:51.856Z,60.81
2018-06-01T13:13:52.025Z,61.55
2018-06-01T13:14:52.201Z,62.33
2018-06-01T13:15:52.336Z,63.78
2018-06-01T13:16:52.489Z,65.43
2018-06-01T13:17:52.675Z,66.11
2018-06-01T13:18:52.777Z,66.11
2018-06-01T13:19:53.018Z,65.72
2018-06-01T13:20:53.221Z,66.11
2018-06-01T13:21:53.298Z,61.94
2018-06-01T13:22:53.524Z,64.27
2018-06-01T13:23:53.671Z,64.75
2018-06-01T13:24:53.924Z,61.71
2018-06-01T13:25:54.070Z,61.13
2018-06-01T13:26:54.255Z,61.65
2018-06-01T13:27:54.386Z,61.84
2018-06-01T13:28:54.595Z,58.40
2018-06-01T13:29:54.786Z,55.54
2018-06-01T13:30:54.900Z,55.83
2018-06-01T13:31:55.028Z,56.97
2018-06-01T13:32:55.266Z,54.42
2018-06-01T13:33:55.372Z,55.98
2018-06-01T13:34:55.542Z,56.82
2018-06-01T13:35:55.753Z,56.04
2018-06-01T13:36:55.890Z,57.98
2018-06-01T13:37:56.079Z,58.83
2018-06-01T13:38:56.266Z,60.58
2018-06-01T13:39:56.418Z,59.80
2018-06-01T13:40:56.663Z,56.28
2018-06-01T13:41:56.847Z,58.90
2018-06-01T13:42:56.941Z,61.22
2018-06-01T13:43:57.107Z,60.74
2018-06-01T13:44:57.319Z,60.35
2018-06-01T13:45:57.503Z,61.25
2018-06-01T13:46:57.685Z,60.97
2018-06-01T13:47:57.777Z,57.26
2018-06-01T13:48:57.975Z,53.26
2018-06-01T13:49:58.170Z,53.89
2018-06-01T13:50:58.352Z,50.73
2018-06-01T13:51:58.423Z,52.56
2018-06-01T13:52:58.668Z,54.23
2018-06-01T13:53:58.831Z,56.25
2018-06-01T13:54:58.983Z,58.14
2018-06-01T13:55:59.194Z,59.28
2018-06-01T13:56:59.324Z,58.18
2018-06-01T13:57:59.594Z,59.61
2018-06-01T13:58:59.697Z,61.91
2018-06-01T13:59:59.848Z,61.78
2018-06-01T14:01:00.028Z,64.07
2018-06-01T14:02:00.292Z,62.01
2018-06-01T14:03:00.442Z,64.34
2018-06-01T14:04:00.560Z,64.04
2018-06-01T14:05:00.720Z,66.66
2018-06-01T14:06:00.978Z,64.82
2018-06-01T14:07:01.088Z,61.62
2018-06-01T14:08:01.320Z,62.59
2018-06-01T14:09:01.507Z,63.59
2018-06-01T14:10:01.670Z,63.59
2018-06-01T14:11:01.822Z,63.65
2018-06-01T14:12:01.974Z,57.64
2018-06-01T14:13:02.151Z,58.05
2018-06-01T14:14:02.346Z,59.80
2018-06-01T14:15:02.502Z,56.56
2018-06-01T14:16:02.644Z,54.50
2018-06-01T14:17:02.800Z,52.28
2018-06-01T14:18:02.984Z,54.13
2018-06-01T14:19:03.119Z,52.87
2018-06-01T14:20:03.337Z,52.67
2018-06-01T14:21:03.557Z,51.48
2018-06-01T14:22:03.740Z,54.01
2018-06-01T14:23:03.871Z,54.96
2018-06-01T14:24:04.093Z,58.72
2018-06-01T14:25:04.193Z,59.95
2018-06-01T14:26:04.503Z,57.18
2018-06-01T14:27:04.620Z,58.64
2018-06-01T14:28:04.881Z,60.71
2018-06-01T14:29:04.976Z,61.46
2018-06-01T14:30:05.231Z,61.55
2018-06-01T14:31:05.325Z,61.43
2018-06-01T14:32:05.522Z,63.56
2018-06-01T14:33:05.655Z,63.37
2018-06-01T14:34:05.878Z,64.43
2018-06-01T14:35:06.093Z,66.14
2018-06-01T14:36:06.198Z,65.85
2018-06-01T14:37:06.422Z,65.85
2018-06-01T14:38:06.517Z,65.56
2018-06-01T14:39:06.730Z,64.30
2018-06-01T14:40:06.840Z,63.53
2018-06-01T14:41:07.079Z,63.43
2018-06-01T14:42:07.238Z,65.17
2018-06-01T14:43:07.373Z,63.40
2018-06-01T14:44:07.501Z,62.42
2018-06-01T14:45:07.741Z,58.11
2018-06-01T14:46:07.838Z,56.93
2018-06-01T14:47:08.093Z,54.65
2018-06-01T14:48:08.225Z,54.31
2018-06-01T14:49:08.424Z,52.85
2018-06-01T14:50:08.515Z,53.11
2018-06-01T14:51:08.705Z,53.70
2018-06-01T14:52:08.882Z,50.34
2018-06-01T14:53:08.984Z,51.19
2018-06-01T14:54:09.288Z,51.34
2018-06-01T14:55:09.379Z,54.13
2018-06-01T14:56:09.515Z,53.81
2018-06-01T14:57:09.760Z,54.35
2018-06-01T14:58:09.883Z,56.39
2018-06-01T14:59:09.976Z,57.07
2018-06-01T15:00:10.156Z,58.01
2018-06-01T15:01:10.361Z,59.28
2018-06-01T15:02:10.559Z,56.77
2018-06-01T15:03:10.736Z,57.53
2018-06-01T15:04:10.850Z,57.68
2018-06-01T15:05:11.088Z,54.23
2018-06-01T15:06:11.214Z,52.34
2018-06-01T15:07:11.418Z,53.63
2018-06-01T15:08:11.646Z,55.07
2018-06-01T15:09:11.821Z,55.21
2018-06-01T15:10:11.919Z,56.35
2018-06-01T15:11:12.046Z,56.90
2018-06-01T15:12:12.264Z,56.81
2018-06-01T15:13:12.375Z,56.68
2018-06-01T15:14:12.640Z,55.05
2018-06-01T15:15:12.769Z,58.65
2018-06-01T15:16:12.923Z,58.95
2018-06-01T15:17:13.124Z,60.70
2018-06-01T15:18:13.312Z,58.49
2018-06-01T15:19:13.468Z,55.69
2018-06-01T15:20:13.655Z,52.89
2018-06-01T15:21:13.885Z,54.09
2018-06-01T15:22:14.036Z,54.02
2018-06-01T15:23:14.119Z,51.19
2018-06-01T15:24:14.321Z,49.27
2018-06-01T15:25:14.489Z,51.04
2018-06-01T15:26:14.617Z,49.41
2018-06-01T15:27:14.840Z,50.32
2018-06-01T15:28:15.002Z,47.95
2018-06-01T15:29:15.172Z,48.16
2018-06-01T15:30:15.288Z,50.39
2018-06-01T15:31:15.499Z,47.46
2018-06-01T15:32:15.680Z,46.19
2018-06-01T15:33:15.800Z,48.24
2018-06-01T15:34:16.036Z,47.63
2018-06-01T15:35:16.173Z,48.95
2018-06-01T15:36:16.329Z,49.22
2018-06-01T15:37:16.592Z,50.65
2018-06-01T15:38:16.723Z,52.80
2018-06-01T15:39:16.894Z,52.40
2018-06-01T15:40:17.065Z,50.78
2018-06-01T15:41:17.177Z,52.12
2018-06-01T15:42:17.351Z,52.48
2018-06-01T15:43:17.570Z,52.97
2018-06-01T15:44:17.728Z,51.90
2018-06-01T15:45:17.890Z,51.75
2018-06-01T15:46:18.068Z,52.83
2018-06-01T15:47:18.263Z,50.99
2018-06-01T15:48:18.404Z,50.04
2018-06-01T15:49:18.640Z,49.17
2018-06-01T15:50:18.766Z,49.78
2018-06-01T15:51:18.998Z,49.80
2018-06-01T15:52:19.079Z,50.00
2018-06-01T15:53:19.264Z,46.68
2018-06-01T15:54:19.431Z,46.85
2018-06-01T15:55:19.594Z,49.88
2018-06-01T15:56:19.729Z,51.75
2018-06-01T15:57:19.933Z,49.12
2018-06-01T15:58:20.078Z,50.46
2018-06-01T15:59:20.202Z,52.67
2018-06-01T16:00:20.385Z,52.55
2018-06-01T16:01:20.559Z,55.61
2018-06-01T16:02:20.815Z,55.51
2018-06-01T16:03:20.974Z,56.68
2018-06-01T16:04:21.152Z,55.80
2018-06-01T16:05:21.317Z,54.35